createdAt,value
2023-05-10T00:02:47.519Z,93895.81
2023-05-10T00:05:51.684Z,93883.16
2023-05-10T00:08:55.621Z,93886.97
2023-05-10T00:11:59.977Z,93883.81
2023-05-10T00:15:04.802Z,93887.72
2023-05-10T00:18:08.859Z,93882.44
2023-05-10T00:21:12.830Z,93878.50
2023-05-10T00:24:16.970Z,93872.47
2023-05-10T00:27:21.001Z,93870.09
2023-05-10T00:30:25.056Z,93863.19
2023-05-10T00:33:27.986Z,93867.31
2023-05-10T00:36:31.260Z,93867.03
2023-05-10T00:39:34.911Z,93862.38
2023-05-10T00:42:38.860Z,93858.13
2023-05-10T00:45:43.537Z,93861.09
2023-05-10T00:48:48.544Z,93860.84
2023-05-10T00:51:52.385Z,93851.16
2023-05-10T00:54:57.171Z,93848.34
2023-05-10T00:58:01.014Z,93836.94
2023-05-10T01:01:05.169Z,93834.97
2023-05-10T01:04:08.837Z,93828.03
2023-05-10T01:07:12.955Z,93834.31
2023-05-10T01:10:17.292Z,93829.47
2023-05-10T01:13:38.046Z,93818.03
2023-05-10T01:16:43.829Z,93815.19
2023-05-10T01:19:47.147Z,93807.16
2023-05-10T01:23:21.696Z,93803.69
2023-05-10T01:26:51.577Z,93801.66
2023-05-10T01:30:17.291Z,93796.03
2023-05-10T01:33:27.115Z,93795.81
2023-05-10T01:36:56.958Z,93784.59
2023-05-10T01:40:10.288Z,93784.34
2023-05-10T01:43:23.620Z,93768.13
2023-05-10T01:46:41.614Z,93762.91
2023-05-10T01:49:55.075Z,93758.88
2023-05-10T01:53:01.138Z,93754.84
2023-05-10T01:56:05.395Z,93743.63
2023-05-10T01:59:16.038Z,93740.75
2023-05-10T02:02:22.706Z,93731.78
2023-05-10T02:05:27.101Z,93732.06
2023-05-10T02:08:31.681Z,93725.19
2023-05-10T02:11:35.879Z,93730.72
2023-05-10T02:14:41.609Z,93719.06
2023-05-10T02:17:48.579Z,93711.50
2023-05-10T02:20:55.504Z,93709.03
2023-05-10T02:24:00.954Z,93704.78
2023-05-10T02:27:06.555Z,93694.50
2023-05-10T02:30:13.780Z,93695.13
2023-05-10T02:33:16.994Z,93695.22
2023-05-10T02:36:23.094Z,93681.72
2023-05-10T02:39:30.049Z,93685.69
2023-05-10T02:42:38.136Z,93674.84
2023-05-10T02:45:42.129Z,93678.13
2023-05-10T02:48:46.319Z,93674.06
2023-05-10T02:51:55.793Z,93661.69
2023-05-10T02:55:05.108Z,93658.38
2023-05-10T02:58:08.547Z,93652.44
2023-05-10T03:01:12.601Z,93657.13
2023-05-10T03:04:16.738Z,93653.66
2023-05-10T03:07:23.151Z,93651.94
2023-05-10T03:10:31.100Z,93644.28
2023-05-10T03:13:40.487Z,93640.31
2023-05-10T03:16:58.365Z,93638.81
2023-05-10T03:20:13.626Z,93630.88
2023-05-10T03:23:20.141Z,93624.03
2023-05-10T03:26:28.490Z,93613.66
2023-05-10T03:29:48.032Z,93613.69
2023-05-10T03:32:52.296Z,93604.41
2023-05-10T03:35:55.889Z,93595.22
2023-05-10T03:38:59.917Z,93596.81
2023-05-10T03:42:03.934Z,93590.38
2023-05-10T03:45:09.180Z,93583.22
2023-05-10T03:48:15.170Z,93585.22
2023-05-10T03:51:19.706Z,93576.09
2023-05-10T03:54:23.384Z,93562.66
2023-05-10T03:57:27.487Z,93558.16
2023-05-10T04:00:31.774Z,93553.88
2023-05-10T04:03:38.463Z,93558.41
2023-05-10T04:06:42.346Z,93547.72
2023-05-10T04:09:46.548Z,93541.06
2023-05-10T04:12:50.074Z,93527.16
2023-05-10T04:15:53.996Z,93523.00
2023-05-10T04:18:57.988Z,93525.13
2023-05-10T04:22:02.103Z,93514.78
2023-05-10T04:25:06.345Z,93504.28
2023-05-10T04:28:10.565Z,93501.06
2023-05-10T04:31:14.381Z,93495.19
2023-05-10T04:34:18.278Z,93486.13
2023-05-10T04:37:22.972Z,93482.25
2023-05-10T04:40:27.828Z,93485.72
2023-05-10T04:43:31.488Z,93470.56
2023-05-10T04:46:35.492Z,93466.75
2023-05-10T04:49:39.242Z,93454.34
2023-05-10T04:52:43.240Z,93455.38
2023-05-10T04:55:48.315Z,93448.97
2023-05-10T04:58:52.339Z,93442.56
2023-05-10T05:01:56.007Z,93430.09
2023-05-10T05:04:59.880Z,93435.50
2023-05-10T05:08:03.583Z,93419.75
2023-05-10T05:11:07.492Z,93415.16
2023-05-10T05:14:11.084Z,93410.50
2023-05-10T05:17:15.102Z,93405.22
2023-05-10T05:20:20.502Z,93410.28
2023-05-10T05:23:26.675Z,93388.03
2023-05-10T05:26:30.222Z,93382.53
2023-05-10T05:29:34.451Z,93387.97
2023-05-10T05:32:38.064Z,93380.84
2023-05-10T05:35:42.012Z,93374.16
2023-05-10T05:38:46.635Z,93367.06
2023-05-10T05:41:50.409Z,93360.03
2023-05-10T05:44:54.017Z,93357.97
2023-05-10T05:47:58.472Z,93342.75
2023-05-10T05:51:04.619Z,93345.31
2023-05-10T05:54:10.174Z,93332.03
2023-05-10T05:57:13.265Z,93332.28
2023-05-10T06:00:17.239Z,93339.38
2023-05-10T06:03:22.444Z,93323.34
2023-05-10T06:06:26.040Z,93316.44
2023-05-10T06:09:29.025Z,93314.59
2023-05-10T06:12:33.030Z,93319.34
2023-05-10T06:15:36.641Z,93310.16
2023-05-10T06:18:40.687Z,93310.63
2023-05-10T06:21:44.313Z,93309.00
2023-05-10T06:24:48.302Z,93304.81
2023-05-10T06:27:53.898Z,93302.03
2023-05-10T06:30:57.927Z,93297.25
2023-05-10T06:34:01.606Z,93291.22
2023-05-10T06:37:05.663Z,93284.72
2023-05-10T06:40:09.769Z,93280.63
2023-05-10T06:43:14.162Z,93271.31
2023-05-10T06:46:17.917Z,93270.06
2023-05-10T06:49:21.588Z,93274.94
2023-05-10T06:52:25.225Z,93266.44
2023-05-10T06:55:28.883Z,93258.78
2023-05-10T06:58:34.171Z,93271.84
2023-05-10T07:01:38.226Z,93262.19
2023-05-10T07:04:41.934Z,93265.53
2023-05-10T07:07:46.049Z,93275.53
2023-05-10T07:10:49.925Z,93274.09
2023-05-10T07:13:53.833Z,93266.56
2023-05-10T07:16:57.455Z,93258.22
2023-05-10T07:20:02.250Z,93264.34
2023-05-10T07:23:05.817Z,93253.22
2023-05-10T07:26:10.015Z,93257.75
2023-05-10T07:29:13.758Z,93253.63
2023-05-10T07:32:17.599Z,93258.09
2023-05-10T07:35:21.351Z,93251.16
2023-05-10T07:38:25.328Z,93252.53
2023-05-10T07:41:28.853Z,93250.88
2023-05-10T07:44:32.980Z,93248.19
2023-05-10T07:47:36.632Z,93251.38
2023-05-10T07:50:40.583Z,93246.41
2023-05-10T07:53:44.149Z,93242.25
2023-05-10T07:56:49.144Z,93246.47
2023-05-10T07:59:52.775Z,93245.06
2023-05-10T08:02:56.756Z,93252.19
2023-05-10T08:06:01.166Z,93255.72
2023-05-10T08:09:05.078Z,93244.53
2023-05-10T08:12:08.779Z,93242.94
2023-05-10T08:15:12.847Z,93238.50
2023-05-10T08:18:16.604Z,93238.72
2023-05-10T08:21:22.901Z,93243.34
2023-05-10T08:24:27.874Z,93254.94
2023-05-10T08:27:31.148Z,93239.28
2023-05-10T08:30:34.297Z,93239.69
2023-05-10T08:33:37.956Z,93237.56
2023-05-10T08:36:41.690Z,93229.47
2023-05-10T08:39:49.641Z,93228.34
2023-05-10T08:43:08.791Z,93229.19
2023-05-10T08:46:13.007Z,93231.50
2023-05-10T08:49:22.424Z,93236.53
2023-05-10T08:52:28.872Z,93229.13
2023-05-10T08:55:32.066Z,93232.25
2023-05-10T08:58:36.004Z,93226.78
2023-05-10T09:01:39.341Z,93234.63
2023-05-10T09:04:44.200Z,93230.56
2023-05-10T09:07:47.894Z,93231.97
2023-05-10T09:10:51.312Z,93227.06
2023-05-10T09:13:55.010Z,93223.97
2023-05-10T09:16:58.974Z,93223.88
2023-05-10T09:20:04.174Z,93229.19
2023-05-10T09:23:08.640Z,93225.13
2023-05-10T09:26:12.332Z,93222.56
2023-05-10T09:29:17.675Z,93254.88
2023-05-10T09:32:21.636Z,93224.19
2023-05-10T09:35:29.699Z,93234.38
2023-05-10T09:38:52.362Z,93232.25
2023-05-10T09:41:55.310Z,93232.59
2023-05-10T09:45:06.603Z,93246.53
2023-05-10T09:48:10.516Z,93259.84
2023-05-10T09:51:25.063Z,93254.63
2023-05-10T09:54:29.098Z,93251.84
2023-05-10T09:57:34.642Z,93259.25
2023-05-10T10:00:44.162Z,93258.28
2023-05-10T10:03:47.888Z,93265.31
2023-05-10T10:07:02.393Z,93263.13
2023-05-10T10:10:06.419Z,93258.28
2023-05-10T10:13:09.969Z,93257.00
2023-05-10T10:16:13.081Z,93262.91
2023-05-10T10:19:17.227Z,93268.22
2023-05-10T10:22:20.337Z,93265.19
2023-05-10T10:25:24.506Z,93264.91
2023-05-10T10:28:34.094Z,93266.19
2023-05-10T10:31:49.588Z,93269.09
2023-05-10T10:34:53.773Z,93269.56
2023-05-10T10:37:58.541Z,93261.91
2023-05-10T10:41:12.408Z,93264.00
2023-05-10T10:44:26.737Z,93260.66
2023-05-10T10:47:34.576Z,93271.50
2023-05-10T10:50:47.643Z,93266.66
2023-05-10T10:53:51.346Z,93271.41
2023-05-10T10:57:15.435Z,93273.94
2023-05-10T11:00:26.481Z,93274.78
2023-05-10T11:03:30.864Z,93274.97
2023-05-10T11:06:34.973Z,93277.78
2023-05-10T11:09:42.678Z,93287.16
2023-05-10T11:13:09.573Z,93294.75
2023-05-10T11:16:14.726Z,93290.28
2023-05-10T11:19:19.895Z,93294.59
2023-05-10T11:22:27.647Z,93301.72
2023-05-10T11:25:30.725Z,93308.66
2023-05-10T11:28:34.852Z,93298.63
2023-05-10T11:31:45.380Z,93299.38
2023-05-10T11:34:50.266Z,93295.31
2023-05-10T11:37:53.799Z,93301.47
2023-05-10T11:40:57.758Z,93301.84
2023-05-10T11:44:01.453Z,93306.47
2023-05-10T11:47:05.893Z,93308.72
2023-05-10T11:50:10.023Z,93302.22
2023-05-10T11:53:15.580Z,93308.88
2023-05-10T11:56:18.620Z,93304.09
2023-05-10T11:59:21.916Z,93300.38
2023-05-10T12:02:26.198Z,93308.03
2023-05-10T12:05:30.199Z,93302.75
2023-05-10T12:08:33.149Z,93314.19
2023-05-10T12:11:44.196Z,93313.13
2023-05-10T12:14:52.732Z,93312.41
2023-05-10T12:17:56.308Z,93321.53
2023-05-10T12:21:08.118Z,93319.38
2023-05-10T12:24:12.058Z,93321.94
2023-05-10T12:30:37.476Z,93325.50
2023-05-10T12:33:45.491Z,93332.00
2023-05-10T12:36:53.925Z,93336.53
2023-05-10T12:39:57.569Z,93333.88
2023-05-10T12:43:01.719Z,93341.22
2023-05-10T12:46:16.435Z,93338.44
2023-05-10T12:49:21.510Z,93334.34
2023-05-10T12:52:24.806Z,93332.56
2023-05-10T12:55:28.808Z,93336.34
2023-05-10T12:58:36.120Z,93339.53
2023-05-10T13:01:40.342Z,93341.88
2023-05-10T13:04:44.246Z,93346.28
2023-05-10T13:07:48.336Z,93338.53
2023-05-10T13:10:52.069Z,93341.09
2023-05-10T13:13:56.265Z,93351.38
2023-05-10T13:17:00.281Z,93347.09
2023-05-10T13:20:05.285Z,93347.09
2023-05-10T13:23:08.186Z,93342.44
2023-05-10T13:26:11.168Z,93344.44
2023-05-10T13:29:14.818Z,93348.88
2023-05-10T13:32:18.810Z,93342.50
2023-05-10T13:35:22.767Z,93354.34
2023-05-10T13:38:26.836Z,93348.44
2023-05-10T13:41:30.600Z,93338.47
2023-05-10T13:44:35.305Z,93334.22
2023-05-10T13:47:38.299Z,93354.06
2023-05-10T13:50:42.176Z,93353.69
2023-05-10T13:53:45.771Z,93350.69
2023-05-10T13:56:50.435Z,93348.75
2023-05-10T13:59:55.831Z,93345.09
2023-05-10T14:03:01.212Z,93348.75
2023-05-10T14:06:04.944Z,93349.97
2023-05-10T14:09:09.375Z,93353.81
2023-05-10T14:12:13.059Z,93349.06
2023-05-10T14:15:17.094Z,93348.16
2023-05-10T14:18:21.244Z,93349.47
2023-05-10T14:21:25.293Z,93337.22
2023-05-10T14:24:28.233Z,93351.50
2023-05-10T14:27:31.921Z,93345.84
2023-05-10T14:30:38.200Z,93351.88
2023-05-10T14:33:41.518Z,93348.47
2023-05-10T14:36:45.241Z,93347.69
2023-05-10T14:39:48.630Z,93357.28
2023-05-10T14:42:53.910Z,93354.44
2023-05-10T14:45:58.010Z,93356.03
2023-05-10T14:49:02.127Z,93349.38
2023-05-10T14:52:05.705Z,93354.34
2023-05-10T14:55:10.488Z,93348.38
2023-05-10T14:58:13.543Z,93348.38
2023-05-10T15:01:17.672Z,93342.38
2023-05-10T15:04:22.797Z,93342.81
2023-05-10T15:07:27.095Z,93350.44
2023-05-10T15:10:30.573Z,93340.91
2023-05-10T15:13:35.664Z,93335.16
2023-05-10T15:16:39.268Z,93334.56
2023-05-10T15:19:43.433Z,93336.13
2023-05-10T15:22:46.412Z,93337.03
2023-05-10T15:25:51.762Z,93338.44
2023-05-10T15:28:55.802Z,93333.09
2023-05-10T15:31:59.695Z,93327.22
2023-05-10T15:35:04.154Z,93321.97
2023-05-10T15:38:09.059Z,93312.25
2023-05-10T15:41:11.899Z,93296.47
2023-05-10T15:44:16.483Z,93297.00
2023-05-10T15:47:20.142Z,93284.00
2023-05-10T15:50:23.604Z,93274.09
2023-05-10T15:53:26.718Z,93281.38
2023-05-10T15:56:31.625Z,93281.88
2023-05-10T15:59:36.347Z,93278.53
2023-05-10T16:02:41.920Z,93277.13
2023-05-10T16:05:45.564Z,93276.94
2023-05-10T16:08:49.000Z,93273.19
2023-05-10T16:11:52.658Z,93278.19
2023-05-10T16:14:57.032Z,93270.81
2023-05-10T16:18:00.845Z,93265.56
2023-05-10T16:21:04.930Z,93266.34
2023-05-10T16:24:08.741Z,93261.41
2023-05-10T16:27:14.156Z,93260.91
2023-05-10T16:30:17.793Z,93254.75
2023-05-10T16:33:21.767Z,93245.75
2023-05-10T16:36:25.532Z,93239.91
2023-05-10T16:39:29.462Z,93239.19
2023-05-10T16:42:33.095Z,93241.19
2023-05-10T16:45:37.449Z,93235.56
2023-05-10T16:48:41.161Z,93236.66
2023-05-10T16:51:45.408Z,93225.13
2023-05-10T16:54:48.412Z,93223.13
2023-05-10T16:57:52.709Z,93215.34
2023-05-10T17:00:55.585Z,93206.56
2023-05-10T17:03:59.579Z,93205.88
2023-05-10T17:07:02.499Z,93213.03
2023-05-10T17:10:06.024Z,93207.88
2023-05-10T17:13:10.365Z,93219.50
2023-05-10T17:16:14.309Z,93218.41
2023-05-10T17:19:18.236Z,93222.75
2023-05-10T17:22:22.055Z,93222.94
2023-05-10T17:25:25.269Z,93226.06
2023-05-10T17:28:28.307Z,93220.13
2023-05-10T17:31:33.468Z,93221.81
2023-05-10T17:35:01.395Z,93219.91
2023-05-10T17:38:05.386Z,93218.78
2023-05-10T17:41:08.982Z,93220.56
2023-05-10T17:44:13.894Z,93216.38
2023-05-10T17:47:17.207Z,93206.47
2023-05-10T17:50:20.318Z,93210.66
2023-05-10T17:53:23.675Z,93208.34
2023-05-10T17:56:27.890Z,93205.72
2023-05-10T17:59:31.796Z,93211.91
2023-05-10T18:02:37.571Z,93207.16
2023-05-10T18:05:41.574Z,93210.53
2023-05-10T18:08:45.935Z,93209.22
2023-05-10T18:11:48.903Z,93204.66
2023-05-10T18:14:52.639Z,93233.53
2023-05-10T18:17:57.168Z,93233.91
2023-05-10T18:21:01.745Z,93235.19
2023-05-10T18:24:06.348Z,93229.41
2023-05-10T18:27:12.190Z,93230.81
2023-05-10T18:30:15.840Z,93230.09
2023-05-10T18:33:19.931Z,93245.53
2023-05-10T18:36:24.368Z,93245.63
2023-05-10T18:39:27.892Z,93248.59
2023-05-10T18:42:32.133Z,93243.75
2023-05-10T18:45:35.473Z,93246.19
2023-05-10T18:48:39.631Z,93244.22
2023-05-10T18:51:42.448Z,93235.75
2023-05-10T18:54:45.898Z,93228.78
2023-05-10T18:57:48.872Z,93220.22
2023-05-10T19:00:53.662Z,93212.59
2023-05-10T19:03:57.237Z,93221.88
2023-05-10T19:07:02.584Z,93220.59
2023-05-10T19:10:06.311Z,93221.06
2023-05-10T19:13:09.976Z,93219.88
2023-05-10T19:16:21.806Z,93222.75
2023-05-10T19:19:26.067Z,93232.56
2023-05-10T19:25:37.600Z,93241.69
2023-05-10T19:28:41.644Z,93234.34
2023-05-10T19:31:45.492Z,93240.16
2023-05-10T19:34:51.165Z,93237.59
2023-05-10T19:37:54.756Z,93232.03
2023-05-10T19:41:00.150Z,93226.81
2023-05-10T19:44:04.170Z,93228.41
2023-05-10T19:47:09.913Z,93231.63
2023-05-10T19:50:14.308Z,93220.72
2023-05-10T19:53:18.422Z,93222.81
2023-05-10T19:56:22.220Z,93223.31
2023-05-10T19:59:25.278Z,93215.22
2023-05-10T20:02:28.280Z,93208.63
2023-05-10T20:05:31.288Z,93202.78
2023-05-10T20:08:34.805Z,93205.25
2023-05-10T20:11:38.421Z,93202.41
2023-05-10T20:14:41.789Z,93201.94
2023-05-10T20:17:45.701Z,93205.53
2023-05-10T20:20:48.880Z,93211.72
2023-05-10T20:23:52.493Z,93202.66
2023-05-10T20:26:57.179Z,93210.06
2023-05-10T20:30:00.813Z,93209.63
2023-05-10T20:33:05.152Z,93208.91
2023-05-10T20:36:10.127Z,93205.56
2023-05-10T20:39:14.098Z,93195.13
2023-05-10T20:42:18.048Z,93179.97
2023-05-10T20:45:22.177Z,93168.81
2023-05-10T20:48:25.538Z,93166.16
2023-05-10T20:51:31.317Z,93163.09
2023-05-10T20:54:34.258Z,93176.88
2023-05-10T20:57:37.640Z,93191.03
2023-05-10T21:00:41.338Z,93204.75
2023-05-10T21:03:44.985Z,93199.78
2023-05-10T21:06:48.279Z,93190.13
2023-05-10T21:09:52.466Z,93207.00
2023-05-10T21:12:56.394Z,93214.81
2023-05-10T21:15:59.856Z,93221.69
2023-05-10T21:19:03.235Z,93219.81
2023-05-10T21:22:07.382Z,93220.72
2023-05-10T21:25:10.716Z,93227.16
2023-05-10T21:28:14.157Z,93232.38
2023-05-10T21:31:17.561Z,93225.03
2023-05-10T21:34:22.202Z,93220.03
2023-05-10T21:37:27.372Z,93229.06
2023-05-10T21:40:31.366Z,93224.09
2023-05-10T21:43:35.212Z,93224.06
2023-05-10T21:46:39.176Z,93215.53
2023-05-10T21:49:42.694Z,93201.56
2023-05-10T21:52:46.605Z,93190.88
2023-05-10T21:55:50.230Z,93195.38
2023-05-10T21:58:54.262Z,93193.72
2023-05-10T22:01:57.220Z,93199.19
2023-05-10T22:05:00.517Z,93202.31
2023-05-10T22:08:03.488Z,93208.91
2023-05-10T22:11:06.803Z,93204.19
2023-05-10T22:14:09.707Z,93202.97
2023-05-10T22:17:14.991Z,93203.66
2023-05-10T22:20:19.437Z,93216.22
2023-05-10T22:23:23.619Z,93213.09
2023-05-10T22:26:27.803Z,93214.56
2023-05-10T22:29:31.415Z,93218.06
2023-05-10T22:32:35.192Z,93219.69
2023-05-10T22:35:45.081Z,93230.19
2023-05-10T22:38:48.860Z,93226.44
2023-05-10T22:41:52.479Z,93223.34
2023-05-10T22:44:55.699Z,93235.47
2023-05-10T22:48:00.598Z,93244.44
2023-05-10T22:51:04.269Z,93250.34
2023-05-10T22:54:07.880Z,93247.66
2023-05-10T22:57:10.805Z,93236.72
2023-05-10T23:00:15.529Z,93232.66
2023-05-10T23:03:18.836Z,93244.81
2023-05-10T23:06:22.072Z,93242.81
2023-05-10T23:09:25.095Z,93250.03
2023-05-10T23:12:28.275Z,93248.75
2023-05-10T23:15:33.615Z,93248.28
2023-05-10T23:18:37.560Z,93253.28
2023-05-10T23:21:41.381Z,93250.47
2023-05-10T23:24:45.107Z,93241.22
2023-05-10T23:27:48.013Z,93245.56
2023-05-10T23:30:59.572Z,93249.13
2023-05-10T23:34:03.487Z,93256.66
2023-05-10T23:37:07.409Z,93260.66
2023-05-10T23:40:11.536Z,93252.03
2023-05-10T23:43:17.004Z,93261.13
2023-05-10T23:46:19.988Z,93266.97
2023-05-10T23:49:23.105Z,93263.00
2023-05-10T23:52:26.166Z,93258.66
2023-05-10T23:55:29.103Z,93260.78
2023-05-10T23:58:32.723Z,93253.41
